createdAt,value
2017-10-11T00:00:01.697Z,95.10
2017-10-11T00:02:29.279Z,95.10
2017-10-11T00:04:56.939Z,95.10
2017-10-11T00:07:24.501Z,95.30
2017-10-11T00:09:52.082Z,95.30
2017-10-11T00:12:19.644Z,95.20
2017-10-11T00:14:47.200Z,95.30
2017-10-11T00:17:15.611Z,95.40
2017-10-11T00:19:43.285Z,95.30
2017-10-11T00:22:10.861Z,95.40
2017-10-11T00:24:39.221Z,95.10
2017-10-11T00:27:06.851Z,95.10
2017-10-11T00:29:34.438Z,95.20
2017-10-11T00:32:02.084Z,95.00
2017-10-11T00:34:29.660Z,95.00
2017-10-11T00:36:57.224Z,94.90
2017-10-11T00:39:24.830Z,95.00
2017-10-11T00:41:52.430Z,94.90
2017-10-11T00:44:19.984Z,94.90
2017-10-11T00:46:47.616Z,94.70
2017-10-11T00:49:15.934Z,94.90
2017-10-11T00:51:43.526Z,94.90
2017-10-11T00:54:11.158Z,94.90
2017-10-11T00:56:38.772Z,94.90
2017-10-11T00:59:06.367Z,94.80
2017-10-11T01:01:33.995Z,94.80
2017-10-11T01:04:02.346Z,94.50
2017-10-11T01:06:29.924Z,94.50
2017-10-11T01:08:57.530Z,94.70
2017-10-11T01:11:25.118Z,94.60
2017-10-11T01:13:52.745Z,94.70
2017-10-11T01:16:20.297Z,95.00
2017-10-11T01:18:48.696Z,95.00
2017-10-11T01:21:16.270Z,95.00
2017-10-11T01:23:43.935Z,95.00
2017-10-11T01:26:11.575Z,95.10
2017-10-11T01:28:39.146Z,95.10
2017-10-11T01:31:06.730Z,95.00
2017-10-11T01:33:34.328Z,95.00
2017-10-11T01:36:01.932Z,95.20
2017-10-11T01:38:29.527Z,95.20
2017-10-11T01:40:57.893Z,95.30
2017-10-11T01:43:25.456Z,95.30
2017-10-11T01:45:53.089Z,95.30
2017-10-11T01:48:20.748Z,95.40
2017-10-11T01:50:48.306Z,95.50
2017-10-11T01:53:15.890Z,95.30
2017-10-11T01:55:43.530Z,95.40
2017-10-11T01:58:11.132Z,95.50
2017-10-11T02:00:38.743Z,95.30
2017-10-11T02:03:06.357Z,95.40
2017-10-11T02:05:33.937Z,95.40
2017-10-11T02:08:02.281Z,95.50
2017-10-11T02:10:29.895Z,95.50
2017-10-11T02:12:57.506Z,95.20
2017-10-11T02:15:25.101Z,95.20
2017-10-11T02:17:53.444Z,95.00
2017-10-11T02:20:20.996Z,95.10
2017-10-11T02:22:48.605Z,95.30
2017-10-11T02:25:16.181Z,94.90
2017-10-11T02:27:43.789Z,94.90
2017-10-11T02:30:11.397Z,94.90
2017-10-11T02:32:38.960Z,95.00
2017-10-11T02:35:06.542Z,94.90
2017-10-11T02:37:34.150Z,94.90
2017-10-11T02:40:03.038Z,94.90
2017-10-11T02:42:31.402Z,94.90
2017-10-11T02:44:58.962Z,94.80
2017-10-11T02:47:26.576Z,94.90
2017-10-11T02:49:54.172Z,94.80
2017-10-11T02:52:21.758Z,95.00
2017-10-11T02:54:50.088Z,95.20
2017-10-11T02:57:17.683Z,95.20
2017-10-11T02:59:45.284Z,95.00
2017-10-11T03:02:12.880Z,95.00
2017-10-11T03:04:40.453Z,95.10
2017-10-11T03:07:08.013Z,95.00
2017-10-11T03:09:35.613Z,94.90
2017-10-11T03:12:03.202Z,94.70
2017-10-11T03:14:30.814Z,94.80
2017-10-11T03:16:59.142Z,94.90
2017-10-11T03:19:26.716Z,94.90
2017-10-11T03:21:55.074Z,94.80
2017-10-11T03:24:22.669Z,94.80
2017-10-11T03:26:50.243Z,94.60
2017-10-11T03:29:18.701Z,94.60
2017-10-11T03:31:46.288Z,94.60
2017-10-11T03:34:13.885Z,94.60
2017-10-11T03:36:41.496Z,94.60
2017-10-11T03:39:09.093Z,94.30
2017-10-11T03:41:36.657Z,94.30
2017-10-11T03:44:04.273Z,94.40
2017-10-11T03:46:31.826Z,94.30
2017-10-11T03:48:59.388Z,94.30
2017-10-11T03:51:26.949Z,94.50
2017-10-11T03:53:54.556Z,94.20
2017-10-11T03:56:22.150Z,94.20
2017-10-11T03:58:49.724Z,94.10
2017-10-11T04:01:17.328Z,94.20
2017-10-11T04:03:44.928Z,94.20
2017-10-11T04:06:12.506Z,94.20
2017-10-11T04:08:40.116Z,94.10
2017-10-11T04:11:07.733Z,94.30
2017-10-11T04:13:35.307Z,94.80
2017-10-11T04:16:02.893Z,95.00
2017-10-11T04:18:31.329Z,95.10
2017-10-11T04:20:58.971Z,95.10
2017-10-11T04:23:26.593Z,95.30
2017-10-11T04:25:54.966Z,95.40
2017-10-11T04:28:23.316Z,95.20
2017-10-11T04:30:50.967Z,95.20
2017-10-11T04:33:18.573Z,95.10
2017-10-11T04:35:47.020Z,94.80
2017-10-11T04:38:14.690Z,94.80
2017-10-11T04:40:42.417Z,94.60
2017-10-11T04:43:10.015Z,94.70
2017-10-11T04:45:37.587Z,94.80
2017-10-11T04:48:05.186Z,94.60
2017-10-11T04:50:32.749Z,94.50
2017-10-11T04:53:00.477Z,94.30
2017-10-11T04:55:28.053Z,94.20
2017-10-11T04:57:55.668Z,94.00
2017-10-11T05:00:23.259Z,94.00
2017-10-11T05:02:50.860Z,94.00
2017-10-11T05:05:18.438Z,94.00
2017-10-11T05:07:46.034Z,94.10
2017-10-11T05:10:14.379Z,93.90
2017-10-11T05:12:41.958Z,93.90
2017-10-11T05:15:09.504Z,94.10
2017-10-11T05:17:37.100Z,94.10
2017-10-11T05:20:05.445Z,94.20
2017-10-11T05:22:33.054Z,94.20
2017-10-11T05:25:00.641Z,94.10
2017-10-11T05:27:28.202Z,94.00
2017-10-11T05:29:55.805Z,94.00
2017-10-11T05:32:23.394Z,94.00
2017-10-11T05:34:50.941Z,93.90
2017-10-11T05:37:19.272Z,93.70
2017-10-11T05:39:46.826Z,93.70
2017-10-11T05:42:14.399Z,93.70
2017-10-11T05:44:41.974Z,93.70
2017-10-11T05:47:09.568Z,93.90
2017-10-11T05:49:37.161Z,93.70
2017-10-11T05:52:04.759Z,93.70
2017-10-11T05:54:32.330Z,93.70
2017-10-11T05:56:59.948Z,93.40
2017-10-11T05:59:27.525Z,93.40
2017-10-11T06:01:55.080Z,93.40
2017-10-11T06:04:23.418Z,93.30
2017-10-11T06:06:50.997Z,93.30
2017-10-11T06:09:18.550Z,93.00
2017-10-11T06:11:46.133Z,93.20
2017-10-11T06:14:13.693Z,93.30
2017-10-11T06:16:41.251Z,93.40
2017-10-11T06:19:08.858Z,93.40
2017-10-11T06:21:37.171Z,93.30
2017-10-11T06:24:04.770Z,93.30
2017-10-11T06:26:32.380Z,93.10
2017-10-11T06:28:59.956Z,93.10
2017-10-11T06:31:27.516Z,93.50
2017-10-11T06:33:55.135Z,93.50
2017-10-11T06:36:23.486Z,93.30
2017-10-11T06:38:51.853Z,93.50
2017-10-11T06:41:19.486Z,93.50
2017-10-11T06:43:47.054Z,93.10
2017-10-11T06:46:15.403Z,92.90
2017-10-11T06:48:42.988Z,92.90
2017-10-11T06:51:10.583Z,92.90
2017-10-11T06:53:38.166Z,92.90
2017-10-11T06:56:05.846Z,93.00
2017-10-11T06:58:34.276Z,93.20
2017-10-11T07:01:01.825Z,93.20
2017-10-11T07:03:29.421Z,93.00
2017-10-11T07:05:57.810Z,93.30
2017-10-11T07:08:26.178Z,93.30
2017-10-11T07:10:54.529Z,93.30
2017-10-11T07:13:22.120Z,93.20
2017-10-11T07:15:50.480Z,93.10
2017-10-11T07:18:18.070Z,93.10
2017-10-11T07:20:46.395Z,93.00
2017-10-11T07:23:13.945Z,93.00
2017-10-11T07:25:41.570Z,93.10
2017-10-11T07:28:09.154Z,93.30
2017-10-11T07:30:36.760Z,93.30
2017-10-11T07:33:04.340Z,93.10
2017-10-11T07:35:32.734Z,93.10
2017-10-11T07:38:00.290Z,93.10
2017-10-11T07:40:27.868Z,93.20
2017-10-11T07:42:55.483Z,93.10
2017-10-11T07:45:23.082Z,92.90
2017-10-11T07:47:50.665Z,92.80
2017-10-11T07:50:18.234Z,92.90
2017-10-11T07:52:45.811Z,92.50
2017-10-11T07:55:13.406Z,92.50
2017-10-11T07:57:40.982Z,92.40
2017-10-11T08:00:08.565Z,92.40
2017-10-11T08:02:36.137Z,92.20
2017-10-11T08:05:03.737Z,92.10
2017-10-11T08:07:32.119Z,92.00
2017-10-11T08:10:00.701Z,91.90
2017-10-11T08:12:29.025Z,91.80
2017-10-11T08:14:56.583Z,91.80
2017-10-11T08:17:24.192Z,91.80
2017-10-11T08:19:52.560Z,91.90
2017-10-11T08:22:20.188Z,91.90
2017-10-11T08:24:47.794Z,91.90
2017-10-11T08:27:16.170Z,91.50
2017-10-11T08:29:44.534Z,91.50
2017-10-11T08:32:12.158Z,91.50
2017-10-11T08:34:39.735Z,91.40
2017-10-11T08:37:07.330Z,91.20
2017-10-11T08:39:35.661Z,91.30
2017-10-11T08:42:03.233Z,91.30
2017-10-11T08:44:30.793Z,91.50
2017-10-11T08:46:58.384Z,91.40
2017-10-11T08:49:25.964Z,91.20
2017-10-11T08:51:53.539Z,91.10
2017-10-11T08:54:21.130Z,90.90
2017-10-11T08:56:48.754Z,90.70
2017-10-11T08:59:16.349Z,90.40
2017-10-11T09:01:43.944Z,90.40
2017-10-11T09:04:11.541Z,90.60
2017-10-11T09:06:39.136Z,90.50
2017-10-11T09:09:06.759Z,90.30
2017-10-11T09:11:34.318Z,90.60
2017-10-11T09:14:01.891Z,90.50
2017-10-11T09:16:29.559Z,90.30
2017-10-11T09:18:57.156Z,90.50
2017-10-11T09:21:24.774Z,90.30
2017-10-11T09:23:52.362Z,90.20
2017-10-11T09:26:19.922Z,89.70
2017-10-11T09:28:47.526Z,90.00
2017-10-11T09:31:15.870Z,88.80
2017-10-11T09:33:43.505Z,88.80
2017-10-11T09:36:11.118Z,88.40
2017-10-11T09:38:39.504Z,87.50
2017-10-11T09:41:07.813Z,87.70
2017-10-11T09:43:35.414Z,87.50
2017-10-11T09:46:03.028Z,87.60
2017-10-11T09:48:30.585Z,87.30
2017-10-11T09:50:58.189Z,87.70
2017-10-11T09:53:25.744Z,87.20
2017-10-11T09:55:53.306Z,87.40
2017-10-11T09:58:20.864Z,87.40
2017-10-11T10:00:48.508Z,87.70
2017-10-11T10:03:16.086Z,87.80
2017-10-11T10:05:43.698Z,88.70
2017-10-11T10:08:11.312Z,88.70
2017-10-11T10:10:38.932Z,88.70
2017-10-11T10:13:06.521Z,89.10
2017-10-11T10:15:34.095Z,89.30
2017-10-11T10:18:01.681Z,89.30
2017-10-11T10:20:30.027Z,90.10
2017-10-11T10:22:57.602Z,90.10
2017-10-11T10:25:25.216Z,89.90
2017-10-11T10:27:52.849Z,89.50
2017-10-11T10:30:21.169Z,89.60
2017-10-11T10:32:48.797Z,89.60
2017-10-11T10:35:16.427Z,89.70
2017-10-11T10:37:44.793Z,88.80
2017-10-11T10:40:12.396Z,88.80
2017-10-11T10:42:39.973Z,88.90
2017-10-11T10:45:07.609Z,89.20
2017-10-11T10:47:35.196Z,89.20
2017-10-11T10:50:02.806Z,89.60
2017-10-11T10:52:30.452Z,89.30
2017-10-11T10:54:58.106Z,88.40
2017-10-11T10:57:25.724Z,88.30
2017-10-11T10:59:53.327Z,87.50
2017-10-11T11:02:20.894Z,87.40
2017-10-11T11:04:48.525Z,86.30
2017-10-11T11:07:16.105Z,85.00
2017-10-11T11:09:44.419Z,83.00
2017-10-11T11:12:12.054Z,82.90
2017-10-11T11:14:39.620Z,82.20
2017-10-11T11:17:07.187Z,80.90
2017-10-11T11:19:34.818Z,80.20
2017-10-11T11:22:02.383Z,80.10
2017-10-11T11:24:30.002Z,79.40
2017-10-11T11:26:58.366Z,77.70
2017-10-11T11:29:26.710Z,78.40
2017-10-11T11:31:54.310Z,78.30
2017-10-11T11:34:21.884Z,78.70
2017-10-11T11:36:49.470Z,79.40
2017-10-11T11:39:17.071Z,80.10
2017-10-11T11:41:44.718Z,80.60
2017-10-11T11:44:12.315Z,80.70
2017-10-11T11:46:39.876Z,78.90
2017-10-11T11:49:07.477Z,79.30
2017-10-11T11:51:35.064Z,79.50
2017-10-11T11:54:02.651Z,80.30
2017-10-11T11:56:30.236Z,81.20
2017-10-11T11:58:57.837Z,81.90
2017-10-11T12:01:25.409Z,82.50
2017-10-11T12:03:53.023Z,82.60
2017-10-11T12:06:20.613Z,83.10
2017-10-11T12:08:48.177Z,83.50
2017-10-11T12:11:15.758Z,84.80
2017-10-11T12:13:43.321Z,85.70
2017-10-11T12:16:10.953Z,86.70
2017-10-11T12:18:38.556Z,87.50
2017-10-11T12:21:06.933Z,87.60
2017-10-11T12:23:35.272Z,88.00
2017-10-11T12:26:02.898Z,87.90
2017-10-11T12:28:30.486Z,87.90
2017-10-11T12:30:58.059Z,88.10
2017-10-11T12:33:25.645Z,88.50
2017-10-11T12:35:53.991Z,88.00
2017-10-11T12:38:21.657Z,88.80
2017-10-11T12:40:49.256Z,87.40
2017-10-11T12:43:17.589Z,86.10
2017-10-11T12:45:45.144Z,86.10
2017-10-11T12:48:12.709Z,85.50
2017-10-11T12:50:40.425Z,84.60
2017-10-11T12:53:07.983Z,84.50
2017-10-11T12:55:35.592Z,84.30
2017-10-11T12:58:03.959Z,83.00
2017-10-11T13:00:31.544Z,83.00
2017-10-11T13:02:59.121Z,82.60
2017-10-11T13:05:27.489Z,82.40
2017-10-11T13:07:55.049Z,82.50
2017-10-11T13:10:22.626Z,81.50
2017-10-11T13:12:50.223Z,81.50
2017-10-11T13:15:17.854Z,81.00
2017-10-11T13:17:46.200Z,80.80
2017-10-11T13:20:13.794Z,80.90
2017-10-11T13:22:41.419Z,80.80
2017-10-11T13:25:09.065Z,81.30
2017-10-11T13:27:36.664Z,81.10
2017-10-11T13:30:05.070Z,81.50
2017-10-11T13:32:32.691Z,81.50
2017-10-11T13:35:00.296Z,81.00
2017-10-11T13:37:27.856Z,80.80
2017-10-11T13:39:55.419Z,80.70
2017-10-11T13:42:23.078Z,79.80
2017-10-11T13:44:50.685Z,79.80
2017-10-11T13:47:18.291Z,79.80
2017-10-11T13:49:45.885Z,79.90
2017-10-11T13:52:13.455Z,80.10
2017-10-11T13:54:41.037Z,80.70
2017-10-11T13:57:08.630Z,81.10
2017-10-11T13:59:36.194Z,80.70
2017-10-11T14:02:03.791Z,81.10
2017-10-11T14:04:31.381Z,81.50
2017-10-11T14:06:59.737Z,81.70
2017-10-11T14:09:27.306Z,81.70
2017-10-11T14:11:54.891Z,81.40
2017-10-11T14:14:23.272Z,82.00
2017-10-11T14:16:51.811Z,81.90
2017-10-11T14:19:19.397Z,81.80
2017-10-11T14:21:47.013Z,82.10
2017-10-11T14:24:14.581Z,82.90
2017-10-11T14:26:42.465Z,83.50
2017-10-11T14:29:10.118Z,84.10
2017-10-11T14:31:37.667Z,84.00
2017-10-11T14:34:05.250Z,84.60
2017-10-11T14:36:32.837Z,84.60
2017-10-11T14:39:00.494Z,84.90
2017-10-11T14:41:28.917Z,84.90
2017-10-11T14:43:56.547Z,84.90
2017-10-11T14:46:24.928Z,84.30
2017-10-11T14:48:52.547Z,84.30
2017-10-11T14:51:20.253Z,84.40
2017-10-11T14:53:47.822Z,84.30
2017-10-11T14:56:15.422Z,84.40
2017-10-11T14:58:43.066Z,84.50
2017-10-11T15:01:10.685Z,84.20
2017-10-11T15:03:39.052Z,84.30
2017-10-11T15:06:06.649Z,84.30
2017-10-11T15:08:34.285Z,84.80
2017-10-11T15:11:01.892Z,84.20
2017-10-11T15:13:29.485Z,84.00
2017-10-11T15:15:57.137Z,84.10
2017-10-11T15:18:24.738Z,84.00
2017-10-11T15:20:52.323Z,84.30
2017-10-11T15:23:19.936Z,84.20
2017-10-11T15:25:47.506Z,84.30
2017-10-11T15:28:15.835Z,84.70
2017-10-11T15:30:43.446Z,84.70
2017-10-11T15:33:11.799Z,84.60
2017-10-11T15:35:39.416Z,84.60
2017-10-11T15:38:07.625Z,85.20
2017-10-11T15:40:35.960Z,85.60
2017-10-11T15:43:03.588Z,85.60
2017-10-11T15:45:31.195Z,85.50
2017-10-11T15:47:58.782Z,85.50
2017-10-11T15:50:26.405Z,85.50
2017-10-11T15:52:54.023Z,85.70
2017-10-11T15:55:21.608Z,85.80
2017-10-11T15:57:49.228Z,86.10
2017-10-11T16:00:17.652Z,86.00
2017-10-11T16:02:45.988Z,86.10
2017-10-11T16:05:13.607Z,86.00
2017-10-11T16:07:41.219Z,86.10
2017-10-11T16:10:08.862Z,86.00
2017-10-11T16:12:36.424Z,86.20
2017-10-11T16:15:04.074Z,86.00
2017-10-11T16:17:31.637Z,86.00
2017-10-11T16:19:59.246Z,86.10
2017-10-11T16:22:27.647Z,86.00
2017-10-11T16:24:55.263Z,86.00
2017-10-11T16:27:22.863Z,87.00
2017-10-11T16:29:50.485Z,86.30
2017-10-11T16:32:18.114Z,86.30
2017-10-11T16:34:45.705Z,86.20
2017-10-11T16:37:13.363Z,86.20
2017-10-11T16:39:40.968Z,86.70
2017-10-11T16:42:08.600Z,86.20
2017-10-11T16:44:36.988Z,86.50
2017-10-11T16:47:04.607Z,86.30
2017-10-11T16:49:32.273Z,86.60
2017-10-11T16:51:59.914Z,86.30
2017-10-11T16:54:27.573Z,86.00
2017-10-11T16:56:55.230Z,86.40
2017-10-11T16:59:22.987Z,86.60
2017-10-11T17:01:51.035Z,86.50
2017-10-11T17:04:19.398Z,86.10
2017-10-11T17:06:47.076Z,86.10
2017-10-11T17:09:14.731Z,86.40
2017-10-11T17:11:43.119Z,86.10
2017-10-11T17:16:45.542Z,86.30
2017-10-11T17:19:13.175Z,86.50
2017-10-11T17:21:40.793Z,86.60
2017-10-11T17:24:08.405Z,86.60
2017-10-11T17:26:36.803Z,86.80
2017-10-11T17:29:04.415Z,86.80
2017-10-11T17:31:32.024Z,86.80
2017-10-11T17:33:59.669Z,86.80
2017-10-11T17:36:27.270Z,86.90
2017-10-11T17:38:54.884Z,86.90
2017-10-11T17:41:22.501Z,86.90
2017-10-11T17:43:50.122Z,87.30
2017-10-11T17:46:17.791Z,87.30
2017-10-11T17:48:45.389Z,87.50
2017-10-11T17:51:13.048Z,87.80
2017-10-11T17:53:40.862Z,88.70
2017-10-11T17:56:09.254Z,88.30
2017-10-11T17:58:36.831Z,88.20
2017-10-11T18:01:04.511Z,88.30
2017-10-11T18:03:32.104Z,88.50
2017-10-11T18:05:59.786Z,88.40
2017-10-11T18:08:27.905Z,88.60
2017-10-11T18:10:55.509Z,88.80
2017-10-11T18:13:23.911Z,88.90
2017-10-11T18:15:51.596Z,88.90
2017-10-11T18:18:19.389Z,88.70
2017-10-11T18:20:47.023Z,89.00
2017-10-11T18:23:14.668Z,88.90
2017-10-11T18:25:42.342Z,88.90
2017-10-11T18:28:10.069Z,89.00
2017-10-11T18:30:37.737Z,89.00
2017-10-11T18:33:06.218Z,89.30
2017-10-11T18:35:34.683Z,89.40
2017-10-11T18:38:02.302Z,89.30
2017-10-11T18:40:29.868Z,89.20
2017-10-11T18:42:58.278Z,89.20
2017-10-11T18:45:25.851Z,89.20
2017-10-11T18:47:54.245Z,89.60
2017-10-11T18:50:21.838Z,89.60
2017-10-11T18:52:49.458Z,89.80
2017-10-11T18:55:17.118Z,90.00
2017-10-11T18:57:44.823Z,90.10
2017-10-11T19:00:12.471Z,90.00
2017-10-11T19:02:40.055Z,90.10
2017-10-11T19:05:07.654Z,90.20
2017-10-11T19:07:35.745Z,90.30
2017-10-11T19:10:03.477Z,90.50
2017-10-11T19:12:31.950Z,90.60
2017-10-11T19:14:59.586Z,90.60
2017-10-11T19:17:27.204Z,90.70
2017-10-11T19:19:55.599Z,90.70
2017-10-11T19:22:23.182Z,90.60
2017-10-11T19:24:50.881Z,90.60
2017-10-11T19:27:18.561Z,90.50
2017-10-11T19:29:46.995Z,90.20
2017-10-11T19:32:15.131Z,90.20
2017-10-11T19:34:43.010Z,90.30
2017-10-11T19:37:10.597Z,90.30
2017-10-11T19:39:38.262Z,90.30
2017-10-11T19:42:05.926Z,90.30
2017-10-11T19:44:33.620Z,90.30
2017-10-11T19:47:01.996Z,90.30
2017-10-11T19:49:29.662Z,90.30
2017-10-11T19:51:58.029Z,90.10
2017-10-11T19:54:25.682Z,90.10
2017-10-11T19:56:53.325Z,90.00
2017-10-11T19:59:20.927Z,89.80
2017-10-11T20:01:48.957Z,89.90
2017-10-11T20:04:16.585Z,89.70
2017-10-11T20:06:44.201Z,89.50
2017-10-11T20:09:11.796Z,89.20
2017-10-11T20:11:39.388Z,88.70
2017-10-11T20:14:06.974Z,88.50
2017-10-11T20:16:34.531Z,88.30
2017-10-11T20:19:02.189Z,88.10
2017-10-11T20:21:29.853Z,87.70
2017-10-11T20:23:57.414Z,87.80
2017-10-11T20:26:25.052Z,88.20
2017-10-11T20:28:53.572Z,88.40
2017-10-11T20:31:21.197Z,88.50
2017-10-11T20:33:48.889Z,88.50
2017-10-11T20:36:16.486Z,88.30
2017-10-11T20:38:44.104Z,88.60
2017-10-11T20:41:11.687Z,88.60
2017-10-11T20:43:40.018Z,88.40
2017-10-11T20:46:07.605Z,88.30
2017-10-11T20:48:35.243Z,88.00
2017-10-11T20:51:02.815Z,87.80
2017-10-11T20:53:30.464Z,88.00
2017-10-11T20:55:58.306Z,87.90
2017-10-11T20:58:25.890Z,87.80
2017-10-11T21:00:53.557Z,87.60
2017-10-11T21:03:21.150Z,87.80
2017-10-11T21:05:48.728Z,88.00
2017-10-11T21:08:17.084Z,88.50
2017-10-11T21:10:44.698Z,88.30
2017-10-11T21:13:12.392Z,88.40
2017-10-11T21:15:39.976Z,88.40
2017-10-11T21:18:08.336Z,88.90
2017-10-11T21:20:35.971Z,88.70
2017-10-11T21:23:03.655Z,88.80
2017-10-11T21:25:31.276Z,88.60
2017-10-11T21:27:58.894Z,89.80
2017-10-11T21:30:27.280Z,89.60
2017-10-11T21:32:54.909Z,89.60
2017-10-11T21:35:22.508Z,89.80
2017-10-11T21:37:50.144Z,89.80
2017-10-11T21:40:17.764Z,90.00
2017-10-11T21:42:45.364Z,90.00
2017-10-11T21:45:13.063Z,90.10
2017-10-11T21:47:40.648Z,90.20
2017-10-11T21:50:08.254Z,90.10
2017-10-11T21:52:35.899Z,90.30
2017-10-11T21:55:03.564Z,90.20
2017-10-11T21:57:31.201Z,90.20
2017-10-11T21:59:58.780Z,90.10
2017-10-11T22:02:26.382Z,90.00
2017-10-11T22:04:54.816Z,89.90
2017-10-11T22:07:22.475Z,89.80
2017-10-11T22:09:50.091Z,89.40
2017-10-11T22:12:17.705Z,89.40
2017-10-11T22:14:45.298Z,89.40
2017-10-11T22:17:13.036Z,89.80
2017-10-11T22:19:40.650Z,88.90
2017-10-11T22:22:08.318Z,88.70
2017-10-11T22:24:35.933Z,88.20
2017-10-11T22:27:03.485Z,88.20
2017-10-11T22:29:31.121Z,88.30
2017-10-11T22:31:58.742Z,88.10
2017-10-11T22:34:27.082Z,88.40
2017-10-11T22:36:54.721Z,88.40
2017-10-11T22:39:22.311Z,88.10
2017-10-11T22:41:49.905Z,88.00
2017-10-11T22:44:17.509Z,88.20
2017-10-11T22:46:45.099Z,88.00
2017-10-11T22:49:12.914Z,87.60
2017-10-11T22:51:40.538Z,87.80
2017-10-11T22:54:08.159Z,87.50
2017-10-11T22:56:35.783Z,87.30
2017-10-11T22:59:03.415Z,87.20
2017-10-11T23:01:30.994Z,86.90
2017-10-11T23:03:59.331Z,86.50
2017-10-11T23:06:26.955Z,86.50
2017-10-11T23:08:54.530Z,86.40
2017-10-11T23:11:23.035Z,86.30
2017-10-11T23:13:50.650Z,86.30
2017-10-11T23:16:18.256Z,86.10
2017-10-11T23:18:45.856Z,86.10
2017-10-11T23:21:13.443Z,85.70
2017-10-11T23:23:41.294Z,85.80
2017-10-11T23:26:08.857Z,85.70
2017-10-11T23:28:36.459Z,86.10
2017-10-11T23:31:04.060Z,85.80
2017-10-11T23:33:32.868Z,85.90
2017-10-11T23:36:00.474Z,85.90
2017-10-11T23:38:28.050Z,85.80
2017-10-11T23:40:55.641Z,86.00
2017-10-11T23:43:23.268Z,86.00
2017-10-11T23:45:50.883Z,86.00
2017-10-11T23:48:18.738Z,86.00
2017-10-11T23:50:46.369Z,86.10
2017-10-11T23:53:14.735Z,85.50
2017-10-11T23:55:42.297Z,86.00
2017-10-11T23:58:09.931Z,85.90
